Terminal Aerodrome Forecast
Issued by NWS Twin Cities, MN

Home | Current Version | Previous Version | Text Only | Print | Product List | Glossary Off
Versions: 1 2 3 4 5 6 7 8 9 10 11 12 13 14 15 16 17 18 19 20 21 22 23 24 25 26 27 28 29 30

208
FTUS43 KMPX 142045 AAA
TAFMSP
TAF AMD
KMSP 142045Z 1421/1524 26006KT P6SM SKC
     FM150000 00000KT P6SM SKC
     FM151500 16005KT P6SM SCT250=

USA.gov is the U.S. government's official web portal to all federal, state and local government web resources and services.